Time;durP1;ratioP1;P1;durP2;ratioP2;P2;SDS_P1;SDS_P2;PMS_P1;PMS_P2;Temp;Humidity;BMP_temperature;BMP_pressure;BME280_temperature;BME280_humidity;BME280_pressure;Samples;Min_cycle;Max_cycle;Signal;HPM_P1;HPM_P2
2021/08/05 00:02:12;;;;;;;23.60;17.35;;;15.70;99.90;;;;;;6184473;23;20373;-88
2021/08/05 00:04:40;;;;;;;22.90;15.77;;;15.70;99.90;;;;;;6183906;23;20025;-88
2021/08/05 00:07:07;;;;;;;22.75;16.27;;;15.70;99.90;;;;;;6182576;23;20115;-87
2021/08/05 00:09:34;;;;;;;24.70;17.15;;;15.80;99.90;;;;;;6184980;23;20445;-87
2021/08/05 00:12:01;;;;;;;25.52;17.58;;;15.80;99.90;;;;;;6183806;23;20029;-88
2021/08/05 00:14:29;;;;;;;29.50;18.08;;;15.80;99.90;;;;;;6184610;23;20016;-88
2021/08/05 00:16:56;;;;;;;24.15;17.20;;;15.80;99.90;;;;;;6183739;23;20067;-87
2021/08/05 00:19:24;;;;;;;21.48;16.63;;;15.80;99.90;;;;;;6183114;23;20341;-88
2021/08/05 00:21:51;;;;;;;23.02;16.63;;;15.90;99.90;;;;;;6185332;23;20021;-87
2021/08/05 00:24:18;;;;;;;22.13;16.15;;;15.80;99.90;;;;;;6184291;23;20023;-87
2021/08/05 00:26:45;;;;;;;21.33;16.42;;;15.80;99.90;;;;;;6185285;23;20318;-88
2021/08/05 00:29:12;;;;;;;25.27;16.63;;;15.90;99.90;;;;;;6182815;23;20049;-88
2021/08/05 00:31:39;;;;;;;24.27;16.55;;;15.90;99.90;;;;;;6185138;23;20120;-88
2021/08/05 00:34:06;;;;;;;19.40;15.63;;;15.90;99.90;;;;;;6184772;23;20036;-87
2021/08/05 00:36:34;;;;;;;20.70;16.15;;;15.90;99.90;;;;;;6183407;23;20029;-87
2021/08/05 00:39:05;;;;;;;20.80;15.02;;;15.90;99.90;;;;;;6184756;23;20088;-87
2021/08/05 00:41:32;;;;;;;16.98;13.60;;;15.90;99.90;;;;;;6184782;23;20028;-87
2021/08/05 00:44:00;;;;;;;19.98;16.17;;;15.90;99.90;;;;;;6184784;23;20084;-87
2021/08/05 00:46:27;;;;;;;18.92;15.32;;;15.90;99.90;;;;;;6182861;23;20021;-87
2021/08/05 00:48:55;;;;;;;21.65;16.77;;;15.90;99.90;;;;;;6184917;23;20021;-87
2021/08/05 00:51:22;;;;;;;18.50;15.70;;;15.90;99.90;;;;;;6184220;23;20025;-88
2021/08/05 00:53:49;;;;;;;20.73;16.38;;;16.00;99.90;;;;;;6183220;23;20072;-87
2021/08/05 00:56:16;;;;;;;21.50;17.05;;;16.00;99.90;;;;;;6182866;23;20021;-88
2021/08/05 00:58:43;;;;;;;19.10;16.58;;;16.00;99.90;;;;;;6183236;23;20027;-87
2021/08/05 01:01:22;;;;;;;19.30;15.75;;;16.00;99.90;;;;;;6184021;23;20029;-87
2021/08/05 01:03:53;;;;;;;20.52;15.38;;;16.00;99.90;;;;;;6183390;23;20329;-88
2021/08/05 01:06:38;;;;;;;21.40;15.88;;;16.00;99.90;;;;;;6182529;23;20219;-88
2021/08/05 01:09:19;;;;;;;23.77;15.90;;;16.10;99.90;;;;;;6192753;23;20025;-88
2021/08/05 01:11:57;;;;;;;19.48;14.57;;;16.10;99.90;;;;;;6199106;23;20021;-87
2021/08/05 01:14:28;;;;;;;15.27;12.77;;;16.10;99.90;;;;;;6186379;23;20033;-87
2021/08/05 01:16:56;;;;;;;14.95;12.73;;;16.10;99.90;;;;;;6186917;23;20314;-88
2021/08/05 01:19:42;;;;;;;15.63;12.50;;;16.10;99.90;;;;;;6184768;23;20021;-87
2021/08/05 01:22:30;;;;;;;15.05;11.60;;;16.10;99.90;;;;;;6185898;23;20025;-87
2021/08/05 01:25:08;;;;;;;14.88;11.23;;;16.10;99.90;;;;;;6186936;23;20051;-87
2021/08/05 01:27:36;;;;;;;16.75;10.88;;;16.10;99.90;;;;;;6184450;23;20711;-87
2021/08/05 01:30:04;;;;;;;16.50;11.27;;;16.10;99.90;;;;;;6185322;23;20027;-87
2021/08/05 01:32:31;;;;;;;16.27;11.48;;;16.10;99.90;;;;;;6184289;23;20251;-87
2021/08/05 01:34:59;;;;;;;16.30;11.75;;;16.10;99.90;;;;;;6186504;23;20448;-87
2021/08/05 01:37:27;;;;;;;15.57;11.30;;;16.10;99.90;;;;;;6185930;23;20313;-87
2021/08/05 01:39:55;;;;;;;14.27;11.30;;;16.10;99.90;;;;;;6184936;23;20595;-87
2021/08/05 01:42:23;;;;;;;15.30;11.25;;;16.10;99.90;;;;;;6184352;23;20244;-87
2021/08/05 01:44:53;;;;;;;15.23;12.00;;;16.00;99.90;;;;;;6185537;23;20088;-87
2021/08/05 01:47:21;;;;;;;15.80;11.60;;;16.10;99.90;;;;;;6184623;23;20088;-87
2021/08/05 01:49:49;;;;;;;16.10;12.18;;;16.00;99.90;;;;;;6186085;23;20329;-88
2021/08/05 01:52:18;;;;;;;15.67;11.27;;;16.00;99.90;;;;;;6185815;23;20025;-87
2021/08/05 01:54:46;;;;;;;15.60;11.60;;;16.00;99.90;;;;;;6186234;23;20723;-88
2021/08/05 01:57:14;;;;;;;19.63;11.53;;;16.00;99.90;;;;;;6185903;23;20062;-88
2021/08/05 01:59:41;;;;;;;13.52;10.35;;;16.00;99.90;;;;;;6184986;23;20448;-87
2021/08/05 02:02:08;;;;;;;12.38;10.02;;;16.00;99.90;;;;;;6186106;23;20021;-87
2021/08/05 02:04:53;;;;;;;13.60;9.65;;;16.00;99.90;;;;;;6186372;23;20024;-87
2021/08/05 02:07:30;;;;;;;10.13;8.65;;;16.00;99.90;;;;;;6185778;23;20032;-87
2021/08/05 02:10:03;;;;;;;11.00;8.20;;;16.00;99.90;;;;;;6186173;23;20096;-87
2021/08/05 02:12:35;;;;;;;9.05;6.90;;;16.00;99.90;;;;;;6184221;23;20024;-87
2021/08/05 02:15:03;;;;;;;9.50;7.07;;;16.10;99.90;;;;;;6184493;23;20025;-88
2021/08/05 02:17:39;;;;;;;8.27;6.38;;;16.10;99.90;;;;;;6185938;23;20328;-87
2021/08/05 02:20:09;;;;;;;10.90;6.10;;;16.10;99.90;;;;;;6183846;23;20021;-87
2021/08/05 02:22:40;;;;;;;8.77;6.20;;;16.10;99.90;;;;;;6184495;23;20025;-88
2021/08/05 02:25:09;;;;;;;8.45;5.25;;;16.20;99.90;;;;;;6183864;23;20314;-87
2021/08/05 02:27:39;;;;;;;7.85;5.47;;;16.20;99.90;;;;;;6188958;23;20052;-91
2021/08/05 02:30:08;;;;;;;8.05;5.88;;;16.20;99.90;;;;;;6203144;23;20064;-87
2021/08/05 02:32:36;;;;;;;7.03;5.28;;;16.20;99.90;;;;;;6184456;23;20025;-88
2021/08/05 02:35:05;;;;;;;7.57;5.05;;;16.20;99.90;;;;;;6184328;23;20338;-88
2021/08/05 02:37:32;;;;;;;8.35;5.22;;;16.20;99.90;;;;;;6185529;23;20009;-87
2021/08/05 02:40:00;;;;;;;9.00;5.30;;;16.20;99.90;;;;;;6184550;23;20021;-87
2021/08/05 02:42:28;;;;;;;6.97;4.60;;;16.30;99.90;;;;;;6185271;23;20013;-87
2021/08/05 02:44:57;;;;;;;7.07;4.80;;;16.30;99.90;;;;;;6184709;23;20036;-88
2021/08/05 02:47:24;;;;;;;7.75;5.03;;;16.30;99.90;;;;;;6185657;23;20031;-87
2021/08/05 02:49:53;;;;;;;7.50;4.65;;;16.30;99.90;;;;;;6183922;23;20032;-87
2021/08/05 02:52:21;;;;;;;5.00;4.28;;;16.30;99.90;;;;;;6174168;23;20321;-87
2021/08/05 02:54:48;;;;;;;8.60;4.28;;;16.30;99.90;;;;;;6184664;23;20017;-88
2021/08/05 02:57:15;;;;;;;5.13;3.85;;;16.30;99.90;;;;;;6185457;23;20029;-87
2021/08/05 02:59:43;;;;;;;5.88;3.60;;;16.30;99.90;;;;;;6185796;23;20059;-87
2021/08/05 03:02:10;;;;;;;4.68;3.90;;;16.40;99.90;;;;;;6183802;23;20028;-87
2021/08/05 03:04:37;;;;;;;5.25;3.45;;;16.40;99.90;;;;;;6185904;23;20528;-88
2021/08/05 03:07:06;;;;;;;4.50;3.15;;;16.40;99.90;;;;;;6185341;23;20043;-87
2021/08/05 03:09:33;;;;;;;4.68;2.85;;;16.40;99.90;;;;;;6185392;23;20022;-87
2021/08/05 03:12:00;;;;;;;5.40;3.10;;;16.40;99.90;;;;;;6184030;23;20017;-88
2021/08/05 03:14:27;;;;;;;4.15;2.97;;;16.50;99.90;;;;;;6183450;23;20021;-87
2021/08/05 03:16:54;;;;;;;4.93;2.80;;;16.50;99.90;;;;;;6184000;23;20337;-88
2021/08/05 03:19:21;;;;;;;6.57;3.00;;;16.50;99.90;;;;;;6183570;23;20075;-87
2021/08/05 03:21:48;;;;;;;3.08;2.40;;;16.50;99.90;;;;;;6185561;23;20025;-87
2021/08/05 03:24:15;;;;;;;4.60;2.72;;;16.50;99.90;;;;;;6183647;23;20025;-87
2021/08/05 03:26:42;;;;;;;5.88;3.10;;;16.50;99.90;;;;;;6185803;23;20017;-88
2021/08/05 03:29:09;;;;;;;5.10;2.42;;;16.50;99.90;;;;;;6184847;23;20020;-87
2021/08/05 03:31:36;;;;;;;5.05;2.60;;;16.50;99.90;;;;;;6185599;23;20021;-88
2021/08/05 03:34:03;;;;;;;5.50;2.83;;;16.50;99.90;;;;;;6183623;23;20024;-87
2021/08/05 03:36:30;;;;;;;5.03;2.22;;;16.50;99.90;;;;;;6183720;23;20017;-87
2021/08/05 03:38:57;;;;;;;5.65;2.60;;;16.50;99.90;;;;;;6183868;23;20031;-87
2021/08/05 03:41:24;;;;;;;5.20;2.50;;;16.50;99.90;;;;;;6184891;23;20021;-88
2021/08/05 03:43:51;;;;;;;6.40;2.40;;;16.50;99.90;;;;;;6185335;23;20453;-87
2021/08/05 03:46:18;;;;;;;4.60;2.33;;;16.50;99.90;;;;;;6185909;23;20025;-88
2021/08/05 03:48:45;;;;;;;3.90;2.65;;;16.40;99.90;;;;;;6205928;23;20029;-88
2021/08/05 03:51:12;;;;;;;5.85;2.22;;;16.40;99.90;;;;;;6184929;23;20112;-87
2021/08/05 03:53:39;;;;;;;5.38;2.17;;;16.40;99.90;;;;;;6185482;23;20314;-88
2021/08/05 03:56:06;;;;;;;2.42;2.03;;;16.40;99.90;;;;;;6183258;23;20043;-87
2021/08/05 03:58:33;;;;;;;3.58;2.30;;;16.40;99.90;;;;;;6185313;23;20345;-87
2021/08/05 04:01:00;;;;;;;7.25;2.20;;;16.40;99.90;;;;;;6185268;23;20072;-88
2021/08/05 04:03:27;;;;;;;7.07;2.70;;;16.40;99.90;;;;;;6183060;23;20449;-88
2021/08/05 04:05:54;;;;;;;6.35;2.47;;;16.40;99.90;;;;;;6183556;23;20029;-87
2021/08/05 04:08:21;;;;;;;6.88;2.30;;;16.40;99.90;;;;;;6184650;23;20445;-87
2021/08/05 04:10:48;;;;;;;7.25;2.42;;;16.40;99.90;;;;;;6183621;23;20456;-87
2021/08/05 04:13:17;;;;;;;6.97;2.50;;;16.40;99.90;;;;;;6184270;23;20096;-87
2021/08/05 04:15:45;;;;;;;3.97;2.38;;;16.40;99.90;;;;;;6183397;23;20025;-87
2021/08/05 04:18:12;;;;;;;5.72;2.55;;;16.40;99.90;;;;;;6184863;23;20028;-87
2021/08/05 04:20:39;;;;;;;4.90;2.13;;;16.40;99.90;;;;;;6173429;23;20025;-87
2021/08/05 04:23:06;;;;;;;8.23;2.80;;;16.40;99.90;;;;;;6183979;23;20103;-87
2021/08/05 04:25:33;;;;;;;5.22;2.22;;;16.40;99.90;;;;;;6187105;23;20460;-87
2021/08/05 04:28:00;;;;;;;7.43;2.40;;;16.40;99.90;;;;;;6184858;23;20486;-87
2021/08/05 04:30:27;;;;;;;7.00;2.60;;;16.40;99.90;;;;;;6184031;23;20351;-87
2021/08/05 04:32:54;;;;;;;7.43;2.78;;;16.40;99.90;;;;;;6184808;23;20092;-87
2021/08/05 04:35:21;;;;;;;7.75;2.92;;;16.40;99.90;;;;;;6182801;23;20017;-87
2021/08/05 04:37:51;;;;;;;8.15;2.97;;;16.40;99.90;;;;;;6180519;23;20025;-87
2021/08/05 04:40:20;;;;;;;6.00;2.50;;;16.40;99.90;;;;;;6181756;23;20154;-87
2021/08/05 04:42:47;;;;;;;4.60;2.63;;;16.40;99.90;;;;;;6183957;23;20471;-87
2021/08/05 04:45:19;;;;;;;5.28;2.88;;;16.40;99.90;;;;;;6182227;23;20086;-87
2021/08/05 04:48:02;;;;;;;6.47;3.10;;;16.40;99.90;;;;;;6182611;23;20021;-86
2021/08/05 04:50:32;;;;;;;5.10;3.17;;;16.40;99.90;;;;;;6183847;23;20021;-85
2021/08/05 04:53:00;;;;;;;5.88;2.78;;;16.40;99.90;;;;;;6173744;23;20031;-88
2021/08/05 04:55:28;;;;;;;7.38;2.97;;;16.40;99.90;;;;;;6182802;23;20021;-87
2021/08/05 04:58:03;;;;;;;6.47;2.97;;;16.40;99.90;;;;;;6183561;23;20044;-89
2021/08/05 05:00:34;;;;;;;8.88;3.30;;;16.40;99.90;;;;;;6182367;23;20459;-86
2021/08/05 05:03:02;;;;;;;7.35;2.92;;;16.40;99.90;;;;;;6184856;23;20029;-88
2021/08/05 05:05:31;;;;;;;5.80;3.20;;;16.40;99.90;;;;;;6191658;23;20016;-87
2021/08/05 05:08:16;;;;;;;7.28;3.63;;;16.40;99.90;;;;;;6209085;23;20055;-88
2021/08/05 05:10:43;;;;;;;6.70;2.92;;;16.40;99.90;;;;;;6181504;23;20028;-88
2021/08/05 05:13:11;;;;;;;8.57;3.70;;;16.40;99.90;;;;;;6181361;23;20376;-88
2021/08/05 05:15:38;;;;;;;8.25;3.60;;;16.40;99.90;;;;;;6182335;23;20017;-88
2021/08/05 05:18:06;;;;;;;6.50;3.33;;;16.40;99.90;;;;;;6183381;23;20023;-87
2021/08/05 05:20:35;;;;;;;9.13;3.47;;;16.50;99.90;;;;;;6183812;23;20029;-87
2021/08/05 05:23:02;;;;;;;6.80;3.75;;;16.50;99.90;;;;;;6183161;23;20024;-88
2021/08/05 05:25:29;;;;;;;8.13;3.17;;;16.40;99.90;;;;;;6182274;23;20032;-88
2021/08/05 05:27:56;;;;;;;5.95;3.35;;;16.40;99.90;;;;;;6184900;23;20092;-87
2021/08/05 05:30:23;;;;;;;7.45;3.50;;;16.30;99.90;;;;;;6182920;23;20020;-87
2021/08/05 05:32:51;;;;;;;5.93;3.08;;;16.30;99.90;;;;;;6184961;23;20025;-87
2021/08/05 05:35:19;;;;;;;3.72;2.67;;;16.30;99.90;;;;;;6182164;23;20025;-88
2021/08/05 05:37:49;;;;;;;6.95;3.15;;;16.30;99.90;;;;;;6184546;23;20021;-87
2021/08/05 05:40:17;;;;;;;5.10;2.97;;;16.20;99.90;;;;;;6182508;23;20386;-88
2021/08/05 05:42:44;;;;;;;6.53;3.08;;;16.20;99.90;;;;;;6184612;23;20027;-88
2021/08/05 05:45:13;;;;;;;7.10;3.17;;;16.20;99.90;;;;;;6183720;23;20025;-88
2021/08/05 05:47:40;;;;;;;9.35;3.60;;;16.20;99.90;;;;;;6184883;23;20345;-87
2021/08/05 05:50:10;;;;;;;7.15;3.50;;;16.20;99.90;;;;;;6183743;23;20035;-88
2021/08/05 05:52:39;;;;;;;9.38;4.15;;;16.20;99.90;;;;;;6184493;23;20037;-87
2021/08/05 05:55:07;;;;;;;;;;;16.20;99.90;;;;;;6184749;23;20076;-88
2021/08/05 05:57:34;;;;;;;7.50;4.03;;;16.20;99.90;;;;;;6184687;23;19916;-87
2021/08/05 06:00:02;;;;;;;8.70;4.00;;;16.20;99.90;;;;;;6184573;23;20017;-88
2021/08/05 06:02:29;;;;;;;9.73;4.50;;;16.30;99.90;;;;;;6183681;23;20017;-88
2021/08/05 06:04:57;;;;;;;10.07;4.72;;;16.30;99.90;;;;;;6186031;23;20055;-88
2021/08/05 06:07:24;;;;;;;10.63;4.20;;;16.30;99.90;;;;;;6185335;23;20362;-88
2021/08/05 06:09:51;;;;;;;6.78;4.05;;;16.30;99.90;;;;;;6186127;23;20025;-88
2021/08/05 06:12:18;;;;;;;6.90;3.60;;;16.30;99.90;;;;;;6185293;23;20017;-88
2021/08/05 06:14:46;;;;;;;7.28;3.88;;;16.30;99.90;;;;;;6185806;23;20437;-88
2021/08/05 06:17:13;;;;;;;7.47;3.85;;;16.20;99.90;;;;;;6184083;23;20032;-88
2021/08/05 06:19:40;;;;;;;7.18;3.65;;;16.20;99.90;;;;;;6184735;23;20080;-88
2021/08/05 06:22:10;;;;;;;5.40;2.63;;;16.20;99.90;;;;;;6184095;23;20017;-88
2021/08/05 06:24:37;;;;;;;4.38;2.72;;;16.20;99.90;;;;;;6185993;23;20017;-87
2021/08/05 06:27:05;;;;;;;7.78;3.35;;;16.10;99.90;;;;;;6186053;23;20095;-87
2021/08/05 06:29:32;;;;;;;5.85;3.08;;;16.10;99.90;;;;;;6185199;23;20043;-88
2021/08/05 06:31:59;;;;;;;6.40;3.60;;;16.10;99.90;;;;;;6186254;23;20017;-87
2021/08/05 06:34:26;;;;;;;6.22;3.40;;;16.00;99.90;;;;;;6185485;23;20017;-87
2021/08/05 06:36:53;;;;;;;6.38;3.60;;;16.00;99.90;;;;;;6184831;23;20028;-87
2021/08/05 06:39:20;;;;;;;5.75;3.38;;;16.00;99.90;;;;;;6184164;23;20032;-87
2021/08/05 06:41:47;;;;;;;5.55;3.63;;;16.00;99.90;;;;;;6186162;23;20036;-87
2021/08/05 06:44:15;;;;;;;4.78;3.35;;;16.00;99.90;;;;;;6185622;23;20021;-87
2021/08/05 06:46:42;;;;;;;7.25;3.47;;;16.10;99.90;;;;;;6186361;23;20017;-87
2021/08/05 06:49:09;;;;;;;5.70;3.33;;;16.10;99.90;;;;;;6185098;23;20103;-87
2021/08/05 06:51:36;;;;;;;6.15;3.38;;;16.10;99.90;;;;;;6173529;23;20043;-88
2021/08/05 06:54:03;;;;;;;9.60;3.40;;;16.10;99.90;;;;;;6184096;23;20025;-87
2021/08/05 06:56:30;;;;;;;6.35;3.72;;;16.10;99.90;;;;;;6185472;23;20027;-87
2021/08/05 06:58:56;;;;;;;7.20;3.55;;;16.10;99.90;;;;;;6184475;23;20021;-87
2021/08/05 07:01:23;;;;;;;5.30;3.03;;;16.20;99.90;;;;;;6185089;23;20025;-87
2021/08/05 07:03:51;;;;;;;6.38;3.25;;;16.20;99.90;;;;;;6185448;23;20021;-87
2021/08/05 07:06:18;;;;;;;8.40;3.65;;;16.30;99.90;;;;;;6184281;23;20044;-87
2021/08/05 07:08:45;;;;;;;8.88;3.40;;;16.30;99.90;;;;;;6183806;23;20093;-87
2021/08/05 07:11:12;;;;;;;7.18;3.35;;;16.30;99.90;;;;;;6184608;23;20024;-87
2021/08/05 07:13:39;;;;;;;7.97;3.65;;;16.40;99.90;;;;;;6183320;23;20021;-87
2021/08/05 07:16:06;;;;;;;7.47;3.85;;;16.40;99.90;;;;;;6183141;23;20048;-87
2021/08/05 07:18:33;;;;;;;7.20;3.50;;;16.40;99.90;;;;;;6185629;23;20031;-87
2021/08/05 07:21:02;;;;;;;5.80;3.60;;;16.50;99.90;;;;;;6184274;23;20024;-87
2021/08/05 07:23:29;;;;;;;8.75;3.90;;;16.50;99.90;;;;;;6185365;23;20429;-87
2021/08/05 07:25:56;;;;;;;7.80;3.83;;;16.50;99.90;;;;;;6184091;23;20021;-87
2021/08/05 07:28:23;;;;;;;8.82;3.97;;;16.60;99.90;;;;;;6183376;23;20021;-87
2021/08/05 07:30:52;;;;;;;8.32;4.28;;;16.60;99.90;;;;;;6185308;23;20340;-87
2021/08/05 07:33:19;;;;;;;9.23;4.80;;;16.60;99.90;;;;;;6183724;23;20025;-87
2021/08/05 07:35:46;;;;;;;10.45;4.53;;;16.60;99.90;;;;;;6183183;23;20028;-87
2021/08/05 07:38:13;;;;;;;11.18;4.88;;;16.70;99.90;;;;;;6180534;23;20088;-87
2021/08/05 07:40:40;;;;;;;8.70;4.70;;;16.70;99.90;;;;;;6182567;23;20445;-87
2021/08/05 07:43:07;;;;;;;8.85;4.80;;;16.70;99.90;;;;;;6182413;23;20497;-88
2021/08/05 07:45:34;;;;;;;9.35;4.65;;;16.80;99.90;;;;;;6181743;23;20025;-87
2021/08/05 07:48:02;;;;;;;7.25;4.13;;;16.80;99.90;;;;;;6182598;23;20051;-87
2021/08/05 07:50:29;;;;;;;7.97;4.00;;;16.80;99.90;;;;;;6180877;23;20020;-87
2021/08/05 07:52:56;;;;;;;9.43;4.40;;;16.90;99.90;;;;;;6182114;23;20032;-87
2021/08/05 07:55:25;;;;;;;7.38;4.15;;;16.90;99.90;;;;;;6180513;23;20023;-87
2021/08/05 07:57:52;;;;;;;8.35;3.83;;;17.00;99.90;;;;;;6182586;23;20029;-87
2021/08/05 08:00:19;;;;;;;5.43;3.40;;;17.00;99.90;;;;;;6180062;23;20029;-87
2021/08/05 08:02:46;;;;;;;5.45;2.90;;;17.00;99.90;;;;;;6182552;23;20025;-87
2021/08/05 08:05:14;;;;;;;5.95;3.25;;;17.10;99.90;;;;;;6180449;23;20100;-87
2021/08/05 08:07:42;;;;;;;7.63;3.10;;;17.10;99.90;;;;;;6185129;23;20611;-86
2021/08/05 08:10:12;;;;;;;4.97;2.97;;;17.10;99.90;;;;;;6181749;23;20032;-87
2021/08/05 08:12:39;;;;;;;3.15;2.60;;;17.20;99.90;;;;;;6182053;23;20432;-87
2021/08/05 08:15:07;;;;;;;2.42;2.10;;;17.20;99.90;;;;;;6180009;23;20028;-86
2021/08/05 08:17:36;;;;;;;2.30;2.10;;;17.20;99.90;;;;;;6182286;23;20435;-87
2021/08/05 08:20:05;;;;;;;2.55;1.90;;;17.30;99.90;;;;;;6181021;23;20028;-86
2021/08/05 08:22:32;;;;;;;;;;;17.30;99.90;;;;;;6182113;23;20017;-86
2021/08/05 08:24:59;;;;;;;2.67;1.60;;;17.30;99.90;;;;;;6182453;23;19920;-86
2021/08/05 08:27:26;;;;;;;2.92;1.50;;;17.30;99.90;;;;;;6181313;23;20047;-87
2021/08/05 08:29:53;;;;;;;2.38;1.65;;;17.40;99.90;;;;;;6180937;23;20462;-87
2021/08/05 08:32:20;;;;;;;2.85;1.80;;;17.40;99.90;;;;;;6179738;23;20056;-86
2021/08/05 08:34:47;;;;;;;2.72;1.50;;;17.50;99.90;;;;;;6182605;23;20029;-87
2021/08/05 08:37:13;;;;;;;1.95;1.20;;;17.50;99.90;;;;;;6179622;23;20025;-86
2021/08/05 08:39:40;;;;;;;3.58;1.60;;;17.50;99.90;;;;;;6180919;23;20028;-86
2021/08/05 08:42:07;;;;;;;2.83;1.67;;;17.50;99.90;;;;;;6179785;23;20523;-86
2021/08/05 08:44:35;;;;;;;4.80;1.60;;;17.50;99.90;;;;;;6182563;23;20829;-86
2021/08/05 08:47:06;;;;;;;3.53;1.90;;;17.60;99.90;;;;;;6181283;23;20452;-87
2021/08/05 08:49:33;;;;;;;3.60;1.80;;;17.60;99.90;;;;;;6181873;23;20306;-87
2021/08/05 08:52:01;;;;;;;2.72;1.70;;;17.70;99.90;;;;;;6182139;23;20032;-87
2021/08/05 08:54:29;;;;;;;3.35;1.60;;;17.70;99.90;;;;;;6180456;23;20017;-87
2021/08/05 08:56:57;;;;;;;4.15;1.63;;;17.70;99.90;;;;;;6180413;23;20028;-87
2021/08/05 08:59:24;;;;;;;5.63;1.88;;;17.70;99.90;;;;;;6182379;23;20028;-87
2021/08/05 09:01:51;;;;;;;7.00;1.98;;;17.70;99.90;;;;;;6180913;23;20154;-86
2021/08/05 09:04:20;;;;;;;5.55;2.20;;;17.70;99.90;;;;;;6181822;23;20040;-87
2021/08/05 09:06:48;;;;;;;8.63;2.88;;;17.80;99.90;;;;;;6182153;23;20310;-86
2021/08/05 09:09:15;;;;;;;9.07;3.00;;;17.80;99.90;;;;;;6180223;23;20039;-86
2021/08/05 09:11:42;;;;;;;9.05;3.35;;;17.80;99.90;;;;;;6181929;23;20337;-87
2021/08/05 09:14:10;;;;;;;9.38;3.83;;;17.80;99.90;;;;;;6182083;23;20040;-87
2021/08/05 09:16:37;;;;;;;17.33;4.38;;;17.90;99.90;;;;;;6181412;23;20020;-87
2021/08/05 09:19:11;;;;;;;13.07;4.35;;;17.90;99.90;;;;;;6180139;23;20087;-86
2021/08/05 09:21:53;;;;;;;18.33;5.30;;;18.00;99.90;;;;;;6181939;23;20025;-87
2021/08/05 09:24:28;;;;;;;14.85;4.82;;;18.00;99.90;;;;;;6180056;23;20029;-87
2021/08/05 09:27:02;;;;;;;20.52;5.43;;;18.10;99.90;;;;;;6180099;23;20428;-86
2021/08/05 09:29:30;;;;;;;19.27;4.97;;;18.20;99.90;;;;;;6183632;23;20021;-87
2021/08/05 09:32:01;;;;;;;23.80;5.40;;;18.20;99.90;;;;;;6182039;23;20025;-86
2021/08/05 09:34:40;;;;;;;21.42;5.68;;;18.30;99.90;;;;;;6183925;23;20017;-87
2021/08/05 09:37:10;;;;;;;23.88;6.32;;;18.40;99.90;;;;;;6181318;23;20024;-85
2021/08/05 09:39:40;;;;;;;28.17;6.28;;;18.50;99.90;;;;;;6185259;23;20033;-86
2021/08/05 09:42:08;;;;;;;27.90;6.70;;;18.70;99.90;;;;;;6182871;23;20017;-86
2021/08/05 09:44:38;;;;;;;26.90;6.55;;;18.80;99.90;;;;;;6184143;23;20028;-87
2021/08/05 09:47:12;;;;;;;32.25;6.47;;;18.90;99.90;;;;;;6182913;23;20036;-87
2021/08/05 09:50:01;;;;;;;23.98;6.35;;;19.00;99.90;;;;;;6183623;23;20023;-87
2021/08/05 09:52:33;;;;;;;26.45;6.10;;;19.10;99.90;;;;;;6182773;23;20017;-87
2021/08/05 09:55:02;;;;;;;32.08;6.63;;;19.20;99.90;;;;;;6181999;23;20036;-87
2021/08/05 09:57:31;;;;;;;23.83;6.28;;;19.20;99.90;;;;;;6182627;23;20017;-87
2021/08/05 10:00:17;;;;;;;21.10;5.70;;;19.10;99.90;;;;;;6183698;23;20036;-87
2021/08/05 10:02:52;;;;;;;18.63;5.25;;;19.10;99.90;;;;;;6181790;23;20318;-87
2021/08/05 10:05:22;;;;;;;18.75;4.68;;;19.10;99.90;;;;;;6183817;23;20024;-86
2021/08/05 10:07:54;;;;;;;13.82;3.33;;;19.00;99.90;;;;;;6181771;23;20029;-87
2021/08/05 10:10:25;;;;;;;10.30;2.80;;;18.90;99.90;;;;;;6181127;23;20362;-87
2021/08/05 10:12:57;;;;;;;13.65;3.00;;;18.80;99.90;;;;;;6183475;23;20013;-87
2021/08/05 10:15:25;;;;;;;10.40;2.88;;;18.80;99.90;;;;;;6183075;23;20088;-87
2021/08/05 10:17:55;;;;;;;13.20;2.55;;;18.70;99.90;;;;;;6184522;23;20025;-87
2021/08/05 10:20:24;;;;;;;11.73;2.33;;;18.80;99.90;;;;;;6181691;23;20021;-85
2021/08/05 10:22:52;;;;;;;9.60;2.70;;;18.80;99.90;;;;;;6182498;23;20027;-86
2021/08/05 10:25:25;;;;;;;9.82;2.50;;;19.00;99.90;;;;;;6181547;23;20384;-86
2021/08/05 10:27:53;;;;;;;11.57;2.30;;;19.10;99.90;;;;;;6181202;23;20516;-86
2021/08/05 10:30:20;;;;;;;8.73;1.95;;;19.20;99.90;;;;;;6179897;23;20029;-86
2021/08/05 10:32:48;;;;;;;14.00;2.83;;;19.30;99.90;;;;;;6180602;23;20449;-87
2021/08/05 10:35:16;;;;;;;12.30;2.50;;;19.50;99.90;;;;;;6180816;23;20028;-86
2021/08/05 10:37:43;;;;;;;11.98;2.13;;;19.60;99.90;;;;;;6180826;23;20017;-87
2021/08/05 10:40:12;;;;;;;11.35;2.85;;;19.70;99.90;;;;;;6181044;23;20111;-87
2021/08/05 10:42:44;;;;;;;13.48;3.13;;;19.80;99.90;;;;;;6181563;23;20476;-86
2021/08/05 10:45:13;;;;;;;15.07;2.63;;;19.80;99.90;;;;;;6181269;23;20021;-86
2021/08/05 10:47:44;;;;;;;15.27;3.20;;;19.90;99.90;;;;;;6181603;23;20025;-86
2021/08/05 10:50:14;;;;;;;16.00;3.28;;;20.00;99.90;;;;;;6180623;23;20028;-86
2021/08/05 10:52:46;;;;;;;16.17;3.13;;;20.10;99.90;;;;;;6180762;23;20449;-87
2021/08/05 10:55:16;;;;;;;15.02;3.50;;;20.10;99.90;;;;;;6180572;23;20392;-86
2021/08/05 10:57:45;;;;;;;16.77;2.95;;;20.20;99.90;;;;;;6182825;23;20024;-87
2021/08/05 11:00:15;;;;;;;16.52;3.20;;;20.30;99.90;;;;;;6180236;23;20032;-86
2021/08/05 11:02:50;;;;;;;15.75;3.88;;;20.40;99.90;;;;;;6182140;23;20111;-87
2021/08/05 11:05:21;;;;;;;18.75;3.97;;;20.50;99.90;;;;;;6180681;23;20511;-86
2021/08/05 11:07:49;;;;;;;18.20;3.53;;;20.50;99.90;;;;;;6182591;23;20504;-86
2021/08/05 11:10:16;;;;;;;17.17;3.53;;;20.60;99.90;;;;;;6182436;23;20024;-88
2021/08/05 11:12:45;;;;;;;18.10;4.30;;;20.60;99.90;;;;;;6181046;23;20027;-88
2021/08/05 11:15:25;;;;;;;19.30;4.35;;;20.50;99.90;;;;;;6181008;23;20021;-88
2021/08/05 11:18:10;;;;;;;21.27;4.63;;;20.50;99.90;;;;;;6182627;23;20025;-86
2021/08/05 11:20:39;;;;;;;16.95;4.35;;;20.40;99.90;;;;;;6184756;23;20022;-87
2021/08/05 11:23:25;;;;;;;21.83;4.63;;;20.30;99.90;;;;;;6182633;23;20021;-87
2021/08/05 11:25:52;;;;;;;22.27;4.60;;;20.20;99.90;;;;;;6181706;23;20025;-86
2021/08/05 11:28:32;;;;;;;23.50;4.68;;;20.10;99.90;;;;;;6183027;23;20036;-87
2021/08/05 11:31:07;;;;;;;27.08;5.10;;;20.00;99.90;;;;;;6184907;23;20099;-86
2021/08/05 11:33:40;;;;;;;21.60;5.13;;;19.80;99.90;;;;;;6186515;23;20091;-87
2021/08/05 11:36:25;;;;;;;26.95;5.55;;;19.80;99.90;;;;;;6205740;23;20348;-87
2021/08/05 11:39:26;;;;;;;28.20;4.80;;;19.80;99.90;;;;;;6184964;23;20017;-87
2021/08/05 11:41:53;;;;;;;25.75;4.78;;;19.80;99.90;;;;;;6181889;23;20027;-86
2021/08/05 11:44:41;;;;;;;28.83;4.80;;;19.80;99.90;;;;;;6180570;23;20032;-87
2021/08/05 11:47:18;;;;;;;27.77;5.50;;;19.80;99.90;;;;;;6184316;23;20021;-86
2021/08/05 11:50:07;;;;;;;26.55;4.85;;;19.80;99.90;;;;;;6181563;23;20252;-88
2021/08/05 11:52:36;;;;;;;;;;;19.90;99.90;;;;;;6182588;23;20029;-85
2021/08/05 11:55:21;;;;;;;28.65;5.30;;;20.00;99.90;;;;;;6185308;23;19971;-88
2021/08/05 11:57:51;;;;;;;24.85;5.05;;;20.00;99.90;;;;;;6180064;23;20417;-88
2021/08/05 12:00:24;;;;;;;22.40;4.63;;;20.00;99.90;;;;;;6179921;23;20448;-87
2021/08/05 12:02:54;;;;;;;29.73;5.32;;;20.00;99.90;;;;;;6180716;23;20059;-87
2021/08/05 12:05:25;;;;;;;31.30;5.35;;;19.90;99.90;;;;;;6181578;23;20100;-87
2021/08/05 12:07:53;;;;;;;24.02;5.03;;;19.90;99.90;;;;;;6179548;23;20096;-88
2021/08/05 12:10:29;;;;;;;29.75;5.43;;;19.90;99.90;;;;;;6178469;23;20032;-87
2021/08/05 12:13:04;;;;;;;22.27;5.20;;;19.90;99.90;;;;;;6181671;23;20021;-88
2021/08/05 12:15:42;;;;;;;28.15;4.80;;;19.90;99.90;;;;;;6179793;23;20112;-88
2021/08/05 12:18:17;;;;;;;29.55;5.43;;;19.80;99.90;;;;;;6181156;23;20444;-88
2021/08/05 12:21:03;;;;;;;27.58;5.10;;;19.90;99.90;;;;;;6182200;23;20112;-88
2021/08/05 12:23:35;;;;;;;25.55;4.38;;;20.00;99.90;;;;;;6179883;23;20029;-87
2021/08/05 12:26:18;;;;;;;20.25;4.55;;;20.10;99.90;;;;;;6181755;23;20035;-88
2021/08/05 12:28:45;;;;;;;31.50;5.50;;;20.10;99.90;;;;;;6181387;23;20021;-88
2021/08/05 12:31:16;;;;;;;28.38;4.82;;;20.10;99.90;;;;;;6179425;23;20045;-87
2021/08/05 12:33:44;;;;;;;21.95;4.30;;;20.20;99.90;;;;;;6180394;23;20461;-88
2021/08/05 12:36:16;;;;;;;16.60;3.50;;;20.20;99.90;;;;;;6181395;23;20025;-88
2021/08/05 12:38:48;;;;;;;17.83;3.97;;;20.00;99.90;;;;;;6182123;23;20082;-88
2021/08/05 12:41:24;;;;;;;22.35;4.50;;;20.10;99.90;;;;;;6184985;23;20025;-87
2021/08/05 12:43:54;;;;;;;25.63;4.65;;;20.10;99.90;;;;;;6183802;23;20017;-89
2021/08/05 12:46:23;;;;;;;21.50;3.95;;;20.20;99.90;;;;;;6181874;23;20021;-88
2021/08/05 12:48:57;;;;;;;22.17;4.00;;;20.20;99.90;;;;;;6183172;23;20041;-88
2021/08/05 12:51:28;;;;;;;14.52;3.05;;;20.10;99.90;;;;;;6189933;23;20020;-88
2021/08/05 12:54:10;;;;;;;20.05;3.67;;;20.10;99.90;;;;;;6186276;23;20077;-88